sensor_id;sensor_type;location;lat;lon;timestamp;temperature;humidity
54461;DHT22;69977;49.414;11.010;2023-12-20T00:01:39;5.60;99.90
54461;DHT22;69977;49.414;11.010;2023-12-20T00:04:05;5.60;99.90
54461;DHT22;69977;49.414;11.010;2023-12-20T00:06:31;5.60;99.90
54461;DHT22;69977;49.414;11.010;2023-12-20T00:08:57;5.60;99.90
54461;DHT22;69977;49.414;11.010;2023-12-20T00:11:24;5.60;99.90
54461;DHT22;69977;49.414;11.010;2023-12-20T00:13:50;5.70;99.90
54461;DHT22;69977;49.414;11.010;2023-12-20T00:16:16;5.70;99.90
54461;DHT22;69977;49.414;11.010;2023-12-20T00:18:42;5.70;99.90
54461;DHT22;69977;49.414;11.010;2023-12-20T00:21:08;5.70;99.90
54461;DHT22;69977;49.414;11.010;2023-12-20T00:23:34;5.70;99.90
54461;DHT22;69977;49.414;11.010;2023-12-20T00:26:00;5.70;99.90
54461;DHT22;69977;49.414;11.010;2023-12-20T00:28:26;5.70;99.90
54461;DHT22;69977;49.414;11.010;2023-12-20T00:30:52;5.70;99.90
54461;DHT22;69977;49.414;11.010;2023-12-20T00:33:18;5.80;99.90
54461;DHT22;69977;49.414;11.010;2023-12-20T00:35:44;5.80;99.90
54461;DHT22;69977;49.414;11.010;2023-12-20T00:38:10;5.70;99.90
54461;DHT22;69977;49.414;11.010;2023-12-20T00:40:37;5.50;99.90
54461;DHT22;69977;49.414;11.010;2023-12-20T00:43:03;5.70;99.90
54461;DHT22;69977;49.414;11.010;2023-12-20T00:45:29;5.70;99.90
54461;DHT22;69977;49.414;11.010;2023-12-20T00:47:55;5.80;99.90
54461;DHT22;69977;49.414;11.010;2023-12-20T00:50:21;5.80;99.90
54461;DHT22;69977;49.414;11.010;2023-12-20T00:52:48;5.90;99.90
54461;DHT22;69977;49.414;11.010;2023-12-20T00:55:13;5.90;99.90
54461;DHT22;69977;49.414;11.010;2023-12-20T00:57:39;5.90;99.90
54461;DHT22;69977;49.414;11.010;2023-12-20T01:00:06;5.80;99.90
54461;DHT22;69977;49.414;11.010;2023-12-20T01:02:35;5.70;99.90
54461;DHT22;69977;49.414;11.010;2023-12-20T01:05:01;5.80;99.90
54461;DHT22;69977;49.414;11.010;2023-12-20T01:07:27;5.80;99.90
54461;DHT22;69977;49.414;11.010;2023-12-20T01:09:53;5.70;99.90
54461;DHT22;69977;49.414;11.010;2023-12-20T01:12:19;5.70;99.90
54461;DHT22;69977;49.414;11.010;2023-12-20T01:14:46;5.70;99.90
54461;DHT22;69977;49.414;11.010;2023-12-20T01:17:13;5.80;99.90
54461;DHT22;69977;49.414;11.010;2023-12-20T01:19:39;5.70;99.90
54461;DHT22;69977;49.414;11.010;2023-12-20T01:22:04;5.70;99.90
54461;DHT22;69977;49.414;11.010;2023-12-20T01:24:31;5.70;99.90
54461;DHT22;69977;49.414;11.010;2023-12-20T01:26:57;5.70;99.90
54461;DHT22;69977;49.414;11.010;2023-12-20T01:29:23;5.70;99.90
54461;DHT22;69977;49.414;11.010;2023-12-20T01:31:49;5.70;99.90
54461;DHT22;69977;49.414;11.010;2023-12-20T01:34:15;5.60;99.90
54461;DHT22;69977;49.414;11.010;2023-12-20T01:36:41;5.60;99.90
54461;DHT22;69977;49.414;11.010;2023-12-20T01:39:07;5.60;99.90
54461;DHT22;69977;49.414;11.010;2023-12-20T01:41:33;5.60;99.90
54461;DHT22;69977;49.414;11.010;2023-12-20T01:43:59;5.60;99.90
54461;DHT22;69977;49.414;11.010;2023-12-20T01:46:25;5.60;99.90
54461;DHT22;69977;49.414;11.010;2023-12-20T01:48:52;5.60;99.90
54461;DHT22;69977;49.414;11.010;2023-12-20T01:51:19;5.60;99.90
54461;DHT22;69977;49.414;11.010;2023-12-20T01:53:47;5.70;99.90
54461;DHT22;69977;49.414;11.010;2023-12-20T01:56:14;5.60;99.90
54461;DHT22;69977;49.414;11.010;2023-12-20T01:58:44;5.60;99.90
54461;DHT22;69977;49.414;11.010;2023-12-20T02:01:11;5.60;99.90
54461;DHT22;69977;49.414;11.010;2023-12-20T02:03:37;5.60;99.90
54461;DHT22;69977;49.414;11.010;2023-12-20T02:06:04;5.60;99.90
54461;DHT22;69977;49.414;11.010;2023-12-20T02:08:30;5.60;99.90
54461;DHT22;69977;49.414;11.010;2023-12-20T02:10:56;5.60;99.90
54461;DHT22;69977;49.414;11.010;2023-12-20T02:13:22;5.50;99.90
54461;DHT22;69977;49.414;11.010;2023-12-20T02:15:48;5.60;99.90
54461;DHT22;69977;49.414;11.010;2023-12-20T02:18:14;5.50;99.90
54461;DHT22;69977;49.414;11.010;2023-12-20T02:20:42;5.50;99.90
54461;DHT22;69977;49.414;11.010;2023-12-20T02:23:08;5.50;99.90
54461;DHT22;69977;49.414;11.010;2023-12-20T02:25:34;5.40;99.90
54461;DHT22;69977;49.414;11.010;2023-12-20T02:28:01;5.40;99.90
54461;DHT22;69977;49.414;11.010;2023-12-20T02:30:27;5.40;99.90
54461;DHT22;69977;49.414;11.010;2023-12-20T02:32:53;5.50;99.90
54461;DHT22;69977;49.414;11.010;2023-12-20T02:35:19;5.40;99.90
54461;DHT22;69977;49.414;11.010;2023-12-20T02:37:45;5.30;99.90
54461;DHT22;69977;49.414;11.010;2023-12-20T02:40:11;5.30;99.90
54461;DHT22;69977;49.414;11.010;2023-12-20T02:42:37;5.20;99.90
54461;DHT22;69977;49.414;11.010;2023-12-20T02:45:03;5.20;99.90
54461;DHT22;69977;49.414;11.010;2023-12-20T02:47:30;5.20;99.90
54461;DHT22;69977;49.414;11.010;2023-12-20T02:49:56;5.20;99.90
54461;DHT22;69977;49.414;11.010;2023-12-20T02:52:23;5.10;99.90
54461;DHT22;69977;49.414;11.010;2023-12-20T02:54:49;5.00;99.90
54461;DHT22;69977;49.414;11.010;2023-12-20T02:57:15;5.10;99.90
54461;DHT22;69977;49.414;11.010;2023-12-20T02:59:41;5.00;99.90
54461;DHT22;69977;49.414;11.010;2023-12-20T03:02:07;5.00;99.90
54461;DHT22;69977;49.414;11.010;2023-12-20T03:04:33;5.00;99.90
54461;DHT22;69977;49.414;11.010;2023-12-20T03:06:59;4.90;99.90
54461;DHT22;69977;49.414;11.010;2023-12-20T03:09:25;4.90;99.90
54461;DHT22;69977;49.414;11.010;2023-12-20T03:11:51;4.90;99.90
54461;DHT22;69977;49.414;11.010;2023-12-20T03:14:17;4.90;99.90
54461;DHT22;69977;49.414;11.010;2023-12-20T03:16:49;4.80;99.90
54461;DHT22;69977;49.414;11.010;2023-12-20T03:19:16;4.80;99.90
54461;DHT22;69977;49.414;11.010;2023-12-20T03:21:42;4.80;99.90
54461;DHT22;69977;49.414;11.010;2023-12-20T03:24:08;4.80;99.90
54461;DHT22;69977;49.414;11.010;2023-12-20T03:26:34;4.80;99.90
54461;DHT22;69977;49.414;11.010;2023-12-20T03:29:00;4.70;99.90
54461;DHT22;69977;49.414;11.010;2023-12-20T03:31:26;4.70;99.90
54461;DHT22;69977;49.414;11.010;2023-12-20T03:33:51;4.70;99.90
54461;DHT22;69977;49.414;11.010;2023-12-20T03:36:19;4.70;99.90
54461;DHT22;69977;49.414;11.010;2023-12-20T03:38:46;4.70;99.90
54461;DHT22;69977;49.414;11.010;2023-12-20T03:41:12;4.60;99.90
54461;DHT22;69977;49.414;11.010;2023-12-20T03:43:38;4.60;99.90
54461;DHT22;69977;49.414;11.010;2023-12-20T03:46:04;4.60;99.90
54461;DHT22;69977;49.414;11.010;2023-12-20T03:48:30;4.60;99.90
54461;DHT22;69977;49.414;11.010;2023-12-20T03:50:57;4.60;99.90
54461;DHT22;69977;49.414;11.010;2023-12-20T03:53:23;4.60;99.90
54461;DHT22;69977;49.414;11.010;2023-12-20T03:55:49;4.60;99.90
54461;DHT22;69977;49.414;11.010;2023-12-20T03:58:14;4.60;99.90
54461;DHT22;69977;49.414;11.010;2023-12-20T04:00:40;4.60;99.90
54461;DHT22;69977;49.414;11.010;2023-12-20T04:03:07;4.60;99.90
54461;DHT22;69977;49.414;11.010;2023-12-20T04:05:33;4.60;99.90
54461;DHT22;69977;49.414;11.010;2023-12-20T04:08:01;4.60;99.90
54461;DHT22;69977;49.414;11.010;2023-12-20T04:10:27;4.60;99.90
54461;DHT22;69977;49.414;11.010;2023-12-20T04:12:53;4.50;99.90
54461;DHT22;69977;49.414;11.010;2023-12-20T04:15:20;4.60;99.90
54461;DHT22;69977;49.414;11.010;2023-12-20T04:17:46;4.60;99.90
54461;DHT22;69977;49.414;11.010;2023-12-20T04:20:12;4.60;99.90
54461;DHT22;69977;49.414;11.010;2023-12-20T04:22:38;4.50;99.90
54461;DHT22;69977;49.414;11.010;2023-12-20T04:25:04;4.50;99.90
54461;DHT22;69977;49.414;11.010;2023-12-20T04:27:30;4.50;99.90
54461;DHT22;69977;49.414;11.010;2023-12-20T04:29:56;4.50;99.90
54461;DHT22;69977;49.414;11.010;2023-12-20T04:32:22;4.50;99.90
54461;DHT22;69977;49.414;11.010;2023-12-20T04:34:48;4.50;99.90
54461;DHT22;69977;49.414;11.010;2023-12-20T04:37:14;4.50;99.90
54461;DHT22;69977;49.414;11.010;2023-12-20T04:39:40;4.50;99.90
54461;DHT22;69977;49.414;11.010;2023-12-20T04:42:07;4.50;99.90
54461;DHT22;69977;49.414;11.010;2023-12-20T04:44:33;4.50;99.90
54461;DHT22;69977;49.414;11.010;2023-12-20T04:46:59;4.50;99.90
54461;DHT22;69977;49.414;11.010;2023-12-20T04:49:25;4.50;99.90
54461;DHT22;69977;49.414;11.010;2023-12-20T04:51:51;4.50;99.90
54461;DHT22;69977;49.414;11.010;2023-12-20T04:54:17;4.50;99.90
54461;DHT22;69977;49.414;11.010;2023-12-20T04:56:43;4.50;99.90
54461;DHT22;69977;49.414;11.010;2023-12-20T04:59:09;4.40;99.90
54461;DHT22;69977;49.414;11.010;2023-12-20T05:01:35;4.40;99.90
54461;DHT22;69977;49.414;11.010;2023-12-20T05:04:00;4.40;99.90
54461;DHT22;69977;49.414;11.010;2023-12-20T05:06:26;4.40;99.90
54461;DHT22;69977;49.414;11.010;2023-12-20T05:08:52;4.50;99.90
54461;DHT22;69977;49.414;11.010;2023-12-20T05:11:18;4.40;99.90
54461;DHT22;69977;49.414;11.010;2023-12-20T05:13:44;4.40;99.90
54461;DHT22;69977;49.414;11.010;2023-12-20T05:16:10;4.50;99.90
54461;DHT22;69977;49.414;11.010;2023-12-20T05:18:36;4.50;99.90
54461;DHT22;69977;49.414;11.010;2023-12-20T05:21:02;4.40;99.90
54461;DHT22;69977;49.414;11.010;2023-12-20T05:23:28;4.40;99.90
54461;DHT22;69977;49.414;11.010;2023-12-20T05:25:54;4.40;99.90
54461;DHT22;69977;49.414;11.010;2023-12-20T05:28:19;4.50;99.90
54461;DHT22;69977;49.414;11.010;2023-12-20T05:30:46;4.50;99.90
54461;DHT22;69977;49.414;11.010;2023-12-20T05:33:12;4.50;99.90
54461;DHT22;69977;49.414;11.010;2023-12-20T05:35:38;4.40;99.90
54461;DHT22;69977;49.414;11.010;2023-12-20T05:38:03;4.40;99.90
54461;DHT22;69977;49.414;11.010;2023-12-20T05:40:29;4.40;99.90
54461;DHT22;69977;49.414;11.010;2023-12-20T05:42:55;4.40;99.90
54461;DHT22;69977;49.414;11.010;2023-12-20T05:45:21;4.40;99.90
54461;DHT22;69977;49.414;11.010;2023-12-20T05:47:47;4.40;99.90
54461;DHT22;69977;49.414;11.010;2023-12-20T05:50:13;4.40;99.90
54461;DHT22;69977;49.414;11.010;2023-12-20T05:52:39;4.40;99.90
54461;DHT22;69977;49.414;11.010;2023-12-20T05:55:05;4.40;99.90
54461;DHT22;69977;49.414;11.010;2023-12-20T05:57:31;4.40;99.90
54461;DHT22;69977;49.414;11.010;2023-12-20T05:59:57;4.40;99.90
54461;DHT22;69977;49.414;11.010;2023-12-20T06:02:22;4.40;99.90
54461;DHT22;69977;49.414;11.010;2023-12-20T06:04:48;4.40;99.90
54461;DHT22;69977;49.414;11.010;2023-12-20T06:07:15;4.40;99.90
54461;DHT22;69977;49.414;11.010;2023-12-20T06:09:41;4.40;99.90
54461;DHT22;69977;49.414;11.010;2023-12-20T06:12:07;4.50;99.90
54461;DHT22;69977;49.414;11.010;2023-12-20T06:14:34;4.40;99.90
54461;DHT22;69977;49.414;11.010;2023-12-20T06:17:00;4.40;99.90
54461;DHT22;69977;49.414;11.010;2023-12-20T06:19:27;4.40;99.90
54461;DHT22;69977;49.414;11.010;2023-12-20T06:21:53;4.40;99.90
54461;DHT22;69977;49.414;11.010;2023-12-20T06:24:19;4.40;99.90
54461;DHT22;69977;49.414;11.010;2023-12-20T06:26:45;4.30;99.90
54461;DHT22;69977;49.414;11.010;2023-12-20T06:29:12;4.40;99.90
54461;DHT22;69977;49.414;11.010;2023-12-20T06:31:38;4.40;99.90
54461;DHT22;69977;49.414;11.010;2023-12-20T06:34:04;4.40;99.90
54461;DHT22;69977;49.414;11.010;2023-12-20T06:36:29;4.40;99.90
54461;DHT22;69977;49.414;11.010;2023-12-20T06:38:55;4.40;99.90
54461;DHT22;69977;49.414;11.010;2023-12-20T06:41:21;4.40;99.90
54461;DHT22;69977;49.414;11.010;2023-12-20T06:43:50;4.40;99.90
54461;DHT22;69977;49.414;11.010;2023-12-20T06:46:16;4.40;99.90
54461;DHT22;69977;49.414;11.010;2023-12-20T06:48:42;4.40;99.90
54461;DHT22;69977;49.414;11.010;2023-12-20T06:51:12;4.40;99.90
54461;DHT22;69977;49.414;11.010;2023-12-20T06:53:38;4.50;99.90
54461;DHT22;69977;49.414;11.010;2023-12-20T06:56:04;4.40;99.90
54461;DHT22;69977;49.414;11.010;2023-12-20T06:58:30;4.40;99.90
54461;DHT22;69977;49.414;11.010;2023-12-20T07:00:56;4.40;99.90
54461;DHT22;69977;49.414;11.010;2023-12-20T07:03:22;4.50;99.90
54461;DHT22;69977;49.414;11.010;2023-12-20T07:05:48;4.40;99.90
54461;DHT22;69977;49.414;11.010;2023-12-20T07:08:14;4.40;99.90
54461;DHT22;69977;49.414;11.010;2023-12-20T07:10:41;4.40;99.90
54461;DHT22;69977;49.414;11.010;2023-12-20T07:13:07;4.40;99.90
54461;DHT22;69977;49.414;11.010;2023-12-20T07:15:33;4.50;99.90
54461;DHT22;69977;49.414;11.010;2023-12-20T07:17:59;4.50;99.90
54461;DHT22;69977;49.414;11.010;2023-12-20T07:20:26;4.50;99.90
54461;DHT22;69977;49.414;11.010;2023-12-20T07:22:52;4.60;99.90
54461;DHT22;69977;49.414;11.010;2023-12-20T07:25:18;4.60;99.90
54461;DHT22;69977;49.414;11.010;2023-12-20T07:27:44;4.50;99.90
54461;DHT22;69977;49.414;11.010;2023-12-20T07:30:10;4.60;99.90
54461;DHT22;69977;49.414;11.010;2023-12-20T07:32:36;4.60;99.90
54461;DHT22;69977;49.414;11.010;2023-12-20T07:35:02;4.70;99.90
54461;DHT22;69977;49.414;11.010;2023-12-20T07:37:28;4.60;99.90
54461;DHT22;69977;49.414;11.010;2023-12-20T07:39:54;4.60;99.90
54461;DHT22;69977;49.414;11.010;2023-12-20T07:42:20;4.60;99.90
54461;DHT22;69977;49.414;11.010;2023-12-20T07:44:47;4.60;99.90
54461;DHT22;69977;49.414;11.010;2023-12-20T07:47:13;4.60;99.90
54461;DHT22;69977;49.414;11.010;2023-12-20T07:49:42;4.70;99.90
54461;DHT22;69977;49.414;11.010;2023-12-20T07:52:08;4.70;99.90
54461;DHT22;69977;49.414;11.010;2023-12-20T07:54:34;4.70;99.90
54461;DHT22;69977;49.414;11.010;2023-12-20T07:57:00;4.70;99.90
54461;DHT22;69977;49.414;11.010;2023-12-20T07:59:26;4.70;99.90
54461;DHT22;69977;49.414;11.010;2023-12-20T08:01:52;4.80;99.90
54461;DHT22;69977;49.414;11.010;2023-12-20T08:04:18;4.80;99.90
54461;DHT22;69977;49.414;11.010;2023-12-20T08:06:44;4.80;99.90
54461;DHT22;69977;49.414;11.010;2023-12-20T08:09:09;4.90;99.90
54461;DHT22;69977;49.414;11.010;2023-12-20T08:11:36;4.80;99.90
54461;DHT22;69977;49.414;11.010;2023-12-20T08:14:01;4.90;99.90
54461;DHT22;69977;49.414;11.010;2023-12-20T08:16:27;4.90;99.90
54461;DHT22;69977;49.414;11.010;2023-12-20T08:18:53;5.00;99.90
54461;DHT22;69977;49.414;11.010;2023-12-20T08:21:19;5.00;99.90
54461;DHT22;69977;49.414;11.010;2023-12-20T08:23:47;5.00;99.90
54461;DHT22;69977;49.414;11.010;2023-12-20T08:26:13;5.10;99.90
54461;DHT22;69977;49.414;11.010;2023-12-20T08:28:39;5.20;99.90
54461;DHT22;69977;49.414;11.010;2023-12-20T08:31:05;5.30;99.90
54461;DHT22;69977;49.414;11.010;2023-12-20T08:33:31;5.30;99.90
54461;DHT22;69977;49.414;11.010;2023-12-20T08:35:56;5.30;99.90
54461;DHT22;69977;49.414;11.010;2023-12-20T08:38:22;5.40;99.90
54461;DHT22;69977;49.414;11.010;2023-12-20T08:40:48;5.40;99.90
54461;DHT22;69977;49.414;11.010;2023-12-20T08:43:14;5.40;99.90
54461;DHT22;69977;49.414;11.010;2023-12-20T08:45:40;5.40;99.90
54461;DHT22;69977;49.414;11.010;2023-12-20T08:48:06;5.30;99.90
54461;DHT22;69977;49.414;11.010;2023-12-20T08:50:32;5.40;99.90
54461;DHT22;69977;49.414;11.010;2023-12-20T08:52:58;5.40;99.90
54461;DHT22;69977;49.414;11.010;2023-12-20T08:55:24;5.40;99.90
54461;DHT22;69977;49.414;11.010;2023-12-20T08:57:50;5.50;99.90
54461;DHT22;69977;49.414;11.010;2023-12-20T09:00:16;5.50;99.90
54461;DHT22;69977;49.414;11.010;2023-12-20T09:02:42;5.50;99.90
54461;DHT22;69977;49.414;11.010;2023-12-20T09:05:08;5.50;99.90
54461;DHT22;69977;49.414;11.010;2023-12-20T09:07:34;5.50;99.90
54461;DHT22;69977;49.414;11.010;2023-12-20T09:10:00;5.50;99.90
54461;DHT22;69977;49.414;11.010;2023-12-20T09:12:26;5.50;99.90
54461;DHT22;69977;49.414;11.010;2023-12-20T09:14:53;5.50;99.90
54461;DHT22;69977;49.414;11.010;2023-12-20T09:17:19;5.50;99.90
54461;DHT22;69977;49.414;11.010;2023-12-20T09:19:46;5.40;99.90
54461;DHT22;69977;49.414;11.010;2023-12-20T09:22:12;5.30;99.90
54461;DHT22;69977;49.414;11.010;2023-12-20T09:24:38;5.20;99.90
54461;DHT22;69977;49.414;11.010;2023-12-20T09:27:05;5.20;99.90
54461;DHT22;69977;49.414;11.010;2023-12-20T09:29:31;5.20;99.90
54461;DHT22;69977;49.414;11.010;2023-12-20T09:31:57;5.20;99.90
54461;DHT22;69977;49.414;11.010;2023-12-20T09:34:23;5.20;99.90
54461;DHT22;69977;49.414;11.010;2023-12-20T09:36:51;5.20;99.90
54461;DHT22;69977;49.414;11.010;2023-12-20T09:39:19;5.30;99.90
54461;DHT22;69977;49.414;11.010;2023-12-20T09:41:59;5.20;99.90
54461;DHT22;69977;49.414;11.010;2023-12-20T09:44:26;5.20;99.90
54461;DHT22;69977;49.414;11.010;2023-12-20T09:46:53;5.20;99.90
54461;DHT22;69977;49.414;11.010;2023-12-20T09:49:20;5.30;99.90
54461;DHT22;69977;49.414;11.010;2023-12-20T09:51:47;5.40;99.90
54461;DHT22;69977;49.414;11.010;2023-12-20T09:54:17;5.50;99.90
54461;DHT22;69977;49.414;11.010;2023-12-20T09:56:46;5.60;99.90
54461;DHT22;69977;49.414;11.010;2023-12-20T09:59:13;5.70;99.90
54461;DHT22;69977;49.414;11.010;2023-12-20T10:01:42;5.70;99.90
54461;DHT22;69977;49.414;11.010;2023-12-20T10:04:10;5.70;99.90
54461;DHT22;69977;49.414;11.010;2023-12-20T10:06:42;5.70;99.90
54461;DHT22;69977;49.414;11.010;2023-12-20T10:09:09;5.70;99.90
54461;DHT22;69977;49.414;11.010;2023-12-20T10:11:36;5.70;99.90
54461;DHT22;69977;49.414;11.010;2023-12-20T10:14:06;5.80;99.90
54461;DHT22;69977;49.414;11.010;2023-12-20T10:16:33;5.80;99.90
54461;DHT22;69977;49.414;11.010;2023-12-20T10:18:59;5.90;99.90
54461;DHT22;69977;49.414;11.010;2023-12-20T10:21:27;5.90;99.90
54461;DHT22;69977;49.414;11.010;2023-12-20T10:23:57;6.00;99.90
54461;DHT22;69977;49.414;11.010;2023-12-20T10:26:25;6.00;99.90
54461;DHT22;69977;49.414;11.010;2023-12-20T10:28:53;6.10;99.90
54461;DHT22;69977;49.414;11.010;2023-12-20T10:31:30;6.10;99.90
54461;DHT22;69977;49.414;11.010;2023-12-20T10:33:57;6.10;99.90
54461;DHT22;69977;49.414;11.010;2023-12-20T10:36:26;6.00;99.90
54461;DHT22;69977;49.414;11.010;2023-12-20T10:38:53;6.00;99.90
54461;DHT22;69977;49.414;11.010;2023-12-20T10:41:26;6.10;99.90
54461;DHT22;69977;49.414;11.010;2023-12-20T10:44:03;6.20;99.90
54461;DHT22;69977;49.414;11.010;2023-12-20T10:46:31;6.20;99.90
54461;DHT22;69977;49.414;11.010;2023-12-20T10:49:02;6.50;99.90
54461;DHT22;69977;49.414;11.010;2023-12-20T10:51:28;6.50;99.90
54461;DHT22;69977;49.414;11.010;2023-12-20T10:53:57;6.50;99.90
54461;DHT22;69977;49.414;11.010;2023-12-20T10:56:23;6.40;99.90
54461;DHT22;69977;49.414;11.010;2023-12-20T10:58:49;6.30;99.90
54461;DHT22;69977;49.414;11.010;2023-12-20T11:01:19;6.20;99.90
54461;DHT22;69977;49.414;11.010;2023-12-20T11:03:50;6.10;99.90
54461;DHT22;69977;49.414;11.010;2023-12-20T11:09:23;6.00;99.90
54461;DHT22;69977;49.414;11.010;2023-12-20T11:12:13;6.10;99.90
54461;DHT22;69977;49.414;11.010;2023-12-20T11:14:52;6.10;99.90
54461;DHT22;69977;49.414;11.010;2023-12-20T11:17:19;6.10;99.90
54461;DHT22;69977;49.414;11.010;2023-12-20T11:22:30;6.00;99.90
54461;DHT22;69977;49.414;11.010;2023-12-20T11:25:14;6.00;99.90
54461;DHT22;69977;49.414;11.010;2023-12-20T11:27:43;6.00;99.90
54461;DHT22;69977;49.414;11.010;2023-12-20T11:30:09;6.00;99.90
54461;DHT22;69977;49.414;11.010;2023-12-20T11:32:36;5.90;99.90
54461;DHT22;69977;49.414;11.010;2023-12-20T11:37:38;5.80;99.90
54461;DHT22;69977;49.414;11.010;2023-12-20T11:40:12;5.80;99.90
54461;DHT22;69977;49.414;11.010;2023-12-20T11:42:58;5.80;99.90
54461;DHT22;69977;49.414;11.010;2023-12-20T11:45:24;5.80;99.90
54461;DHT22;69977;49.414;11.010;2023-12-20T11:47:52;5.80;99.90
54461;DHT22;69977;49.414;11.010;2023-12-20T11:50:21;5.90;99.90
54461;DHT22;69977;49.414;11.010;2023-12-20T11:52:49;5.90;99.90
54461;DHT22;69977;49.414;11.010;2023-12-20T11:55:15;6.00;99.90
54461;DHT22;69977;49.414;11.010;2023-12-20T11:57:42;5.90;99.90
54461;DHT22;69977;49.414;11.010;2023-12-20T12:00:09;5.90;99.90
54461;DHT22;69977;49.414;11.010;2023-12-20T12:02:41;5.90;99.90
54461;DHT22;69977;49.414;11.010;2023-12-20T12:05:07;6.00;99.90
54461;DHT22;69977;49.414;11.010;2023-12-20T12:07:34;6.00;99.90
54461;DHT22;69977;49.414;11.010;2023-12-20T12:10:00;6.00;99.90
54461;DHT22;69977;49.414;11.010;2023-12-20T12:12:26;6.00;99.90
54461;DHT22;69977;49.414;11.010;2023-12-20T12:14:53;6.00;99.90
54461;DHT22;69977;49.414;11.010;2023-12-20T12:17:20;6.00;99.90
54461;DHT22;69977;49.414;11.010;2023-12-20T12:19:46;6.10;99.90
54461;DHT22;69977;49.414;11.010;2023-12-20T12:22:15;6.10;99.90
54461;DHT22;69977;49.414;11.010;2023-12-20T12:24:48;6.20;99.90
54461;DHT22;69977;49.414;11.010;2023-12-20T12:27:15;6.20;99.90
54461;DHT22;69977;49.414;11.010;2023-12-20T12:29:43;6.10;99.90
54461;DHT22;69977;49.414;11.010;2023-12-20T12:32:25;6.10;99.90
54461;DHT22;69977;49.414;11.010;2023-12-20T12:34:51;6.00;99.90
54461;DHT22;69977;49.414;11.010;2023-12-20T12:37:17;5.90;99.90
54461;DHT22;69977;49.414;11.010;2023-12-20T12:39:43;6.00;99.90
54461;DHT22;69977;49.414;11.010;2023-12-20T12:42:09;6.00;99.90
54461;DHT22;69977;49.414;11.010;2023-12-20T12:44:35;6.00;99.90
54461;DHT22;69977;49.414;11.010;2023-12-20T12:47:01;6.00;99.90
54461;DHT22;69977;49.414;11.010;2023-12-20T12:49:28;6.00;99.90
54461;DHT22;69977;49.414;11.010;2023-12-20T12:51:54;6.00;99.90
54461;DHT22;69977;49.414;11.010;2023-12-20T12:54:24;6.00;99.90
54461;DHT22;69977;49.414;11.010;2023-12-20T12:56:50;6.10;99.90
54461;DHT22;69977;49.414;11.010;2023-12-20T12:59:16;6.20;99.90
54461;DHT22;69977;49.414;11.010;2023-12-20T13:01:42;6.30;99.90
54461;DHT22;69977;49.414;11.010;2023-12-20T13:04:08;6.20;99.90
54461;DHT22;69977;49.414;11.010;2023-12-20T13:06:39;6.20;99.90
54461;DHT22;69977;49.414;11.010;2023-12-20T13:09:06;6.20;99.90
54461;DHT22;69977;49.414;11.010;2023-12-20T13:11:32;6.20;99.90
54461;DHT22;69977;49.414;11.010;2023-12-20T13:13:59;6.10;99.90
54461;DHT22;69977;49.414;11.010;2023-12-20T13:16:24;6.10;99.90
54461;DHT22;69977;49.414;11.010;2023-12-20T13:18:50;6.00;99.90
54461;DHT22;69977;49.414;11.010;2023-12-20T13:21:16;6.00;99.90
54461;DHT22;69977;49.414;11.010;2023-12-20T13:23:43;6.00;99.90
54461;DHT22;69977;49.414;11.010;2023-12-20T13:26:09;6.00;99.90
54461;DHT22;69977;49.414;11.010;2023-12-20T13:28:34;6.00;99.90
54461;DHT22;69977;49.414;11.010;2023-12-20T13:31:00;6.00;99.90
54461;DHT22;69977;49.414;11.010;2023-12-20T13:33:26;6.00;99.90
54461;DHT22;69977;49.414;11.010;2023-12-20T13:35:52;6.00;99.90
54461;DHT22;69977;49.414;11.010;2023-12-20T13:38:18;6.00;99.90
54461;DHT22;69977;49.414;11.010;2023-12-20T13:40:44;6.00;99.90
54461;DHT22;69977;49.414;11.010;2023-12-20T13:43:10;5.90;99.90
54461;DHT22;69977;49.414;11.010;2023-12-20T13:45:39;5.80;99.90
54461;DHT22;69977;49.414;11.010;2023-12-20T13:48:05;5.80;99.90
54461;DHT22;69977;49.414;11.010;2023-12-20T13:50:31;5.70;99.90
54461;DHT22;69977;49.414;11.010;2023-12-20T13:52:57;5.70;99.90
54461;DHT22;69977;49.414;11.010;2023-12-20T13:55:23;5.70;99.90
54461;DHT22;69977;49.414;11.010;2023-12-20T13:57:51;5.70;99.90
54461;DHT22;69977;49.414;11.010;2023-12-20T14:00:17;5.70;99.90
54461;DHT22;69977;49.414;11.010;2023-12-20T14:02:43;5.70;99.90
54461;DHT22;69977;49.414;11.010;2023-12-20T14:05:09;5.70;99.90
54461;DHT22;69977;49.414;11.010;2023-12-20T14:07:36;5.70;99.90
54461;DHT22;69977;49.414;11.010;2023-12-20T14:10:03;5.70;99.90
54461;DHT22;69977;49.414;11.010;2023-12-20T14:12:29;5.70;99.90
54461;DHT22;69977;49.414;11.010;2023-12-20T14:14:55;5.70;99.90
54461;DHT22;69977;49.414;11.010;2023-12-20T14:17:22;5.70;99.90
54461;DHT22;69977;49.414;11.010;2023-12-20T14:19:48;5.70;99.90
54461;DHT22;69977;49.414;11.010;2023-12-20T14:22:13;5.60;99.90
54461;DHT22;69977;49.414;11.010;2023-12-20T14:24:42;5.60;99.90
54461;DHT22;69977;49.414;11.010;2023-12-20T14:27:08;5.60;99.90
54461;DHT22;69977;49.414;11.010;2023-12-20T14:29:35;5.50;99.90
54461;DHT22;69977;49.414;11.010;2023-12-20T14:32:01;5.50;99.90
54461;DHT22;69977;49.414;11.010;2023-12-20T14:34:29;5.50;99.90
54461;DHT22;69977;49.414;11.010;2023-12-20T14:36:55;5.50;99.90
54461;DHT22;69977;49.414;11.010;2023-12-20T14:39:21;5.50;99.90
54461;DHT22;69977;49.414;11.010;2023-12-20T14:41:48;5.40;99.90
54461;DHT22;69977;49.414;11.010;2023-12-20T14:44:14;5.40;99.90
54461;DHT22;69977;49.414;11.010;2023-12-20T14:46:40;5.40;99.90
54461;DHT22;69977;49.414;11.010;2023-12-20T14:49:06;5.40;99.90
54461;DHT22;69977;49.414;11.010;2023-12-20T14:51:32;5.40;99.90
54461;DHT22;69977;49.414;11.010;2023-12-20T14:53:57;5.40;99.90
54461;DHT22;69977;49.414;11.010;2023-12-20T14:56:24;5.40;99.90
54461;DHT22;69977;49.414;11.010;2023-12-20T14:58:51;5.30;99.90
54461;DHT22;69977;49.414;11.010;2023-12-20T15:01:19;5.30;99.90
54461;DHT22;69977;49.414;11.010;2023-12-20T15:03:48;5.30;99.90
54461;DHT22;69977;49.414;11.010;2023-12-20T15:06:14;5.20;99.90
54461;DHT22;69977;49.414;11.010;2023-12-20T15:08:40;5.20;99.90
54461;DHT22;69977;49.414;11.010;2023-12-20T15:11:06;5.20;99.90
54461;DHT22;69977;49.414;11.010;2023-12-20T15:13:32;5.20;99.90
54461;DHT22;69977;49.414;11.010;2023-12-20T15:15:58;5.20;99.90
54461;DHT22;69977;49.414;11.010;2023-12-20T15:18:24;5.20;99.90
54461;DHT22;69977;49.414;11.010;2023-12-20T15:20:50;5.10;99.90
54461;DHT22;69977;49.414;11.010;2023-12-20T15:23:16;5.10;99.90
54461;DHT22;69977;49.414;11.010;2023-12-20T15:25:42;5.00;99.90
54461;DHT22;69977;49.414;11.010;2023-12-20T15:28:09;5.10;99.90
54461;DHT22;69977;49.414;11.010;2023-12-20T15:30:35;5.00;99.90
54461;DHT22;69977;49.414;11.010;2023-12-20T15:33:01;5.10;99.90
54461;DHT22;69977;49.414;11.010;2023-12-20T15:35:28;5.10;99.90